sensor_id;sensor_type;location;lat;lon;timestamp;pressure;altitude;pressure_sealevel;temperature;humidity
48216;BME280;34005;48.844;10.098;2023-05-24T00:01:15;96957.78;;;14.20;60.33
48216;BME280;34005;48.844;10.098;2023-05-24T00:03:51;96954.53;;;14.18;60.36
48216;BME280;34005;48.844;10.098;2023-05-24T00:06:19;96948.06;;;14.14;60.25
48216;BME280;34005;48.844;10.098;2023-05-24T00:08:48;96954.69;;;14.10;60.32
48216;BME280;34005;48.844;10.098;2023-05-24T00:11:15;96942.34;;;14.04;60.12
48216;BME280;34005;48.844;10.098;2023-05-24T00:13:43;96950.63;;;14.00;60.53
48216;BME280;34005;48.844;10.098;2023-05-24T00:16:11;96955.25;;;13.98;60.35
48216;BME280;34005;48.844;10.098;2023-05-24T00:18:38;96942.31;;;13.97;60.20
48216;BME280;34005;48.844;10.098;2023-05-24T00:21:06;96947.53;;;13.90;60.33
48216;BME280;34005;48.844;10.098;2023-05-24T00:23:34;96940.47;;;13.84;60.42
48216;BME280;34005;48.844;10.098;2023-05-24T00:26:05;96939.25;;;13.80;60.66
48216;BME280;34005;48.844;10.098;2023-05-24T00:28:33;96940.44;;;13.77;60.64
48216;BME280;34005;48.844;10.098;2023-05-24T00:31:01;96945.88;;;13.76;60.56
48216;BME280;34005;48.844;10.098;2023-05-24T00:33:28;96934.94;;;13.72;60.64
48216;BME280;34005;48.844;10.098;2023-05-24T00:35:56;96937.38;;;13.74;60.67
48216;BME280;34005;48.844;10.098;2023-05-24T00:38:24;96937.56;;;13.72;60.76
48216;BME280;34005;48.844;10.098;2023-05-24T00:40:53;96943.44;;;13.74;62.76
48216;BME280;34005;48.844;10.098;2023-05-24T00:43:23;96945.25;;;13.74;61.14
48216;BME280;34005;48.844;10.098;2023-05-24T00:46:04;96940.59;;;13.69;61.01
48216;BME280;34005;48.844;10.098;2023-05-24T00:48:38;96939.78;;;13.69;60.99
48216;BME280;34005;48.844;10.098;2023-05-24T00:51:06;96941.78;;;13.67;61.15
48216;BME280;34005;48.844;10.098;2023-05-24T00:53:35;96938.53;;;13.65;60.97
48216;BME280;34005;48.844;10.098;2023-05-24T00:56:04;96936.91;;;13.64;60.99
48216;BME280;34005;48.844;10.098;2023-05-24T00:58:34;96937.94;;;13.63;61.17
48216;BME280;34005;48.844;10.098;2023-05-24T01:01:02;96938.09;;;13.61;61.37
48216;BME280;34005;48.844;10.098;2023-05-24T01:03:30;96934.06;;;13.58;61.34
48216;BME280;34005;48.844;10.098;2023-05-24T01:06:02;96937.44;;;13.52;61.67
48216;BME280;34005;48.844;10.098;2023-05-24T01:08:42;96933.59;;;13.48;61.71
48216;BME280;34005;48.844;10.098;2023-05-24T01:11:18;96938.22;;;13.46;61.78
48216;BME280;34005;48.844;10.098;2023-05-24T01:13:54;96941.22;;;13.43;61.83
48216;BME280;34005;48.844;10.098;2023-05-24T01:16:32;96931.53;;;13.44;62.19
48216;BME280;34005;48.844;10.098;2023-05-24T01:19:11;96927.09;;;13.44;62.65
48216;BME280;34005;48.844;10.098;2023-05-24T01:21:53;96927.94;;;13.45;62.33
48216;BME280;34005;48.844;10.098;2023-05-24T01:24:28;96917.25;;;13.46;62.65
48216;BME280;34005;48.844;10.098;2023-05-24T01:27:06;96917.06;;;13.48;62.44
48216;BME280;34005;48.844;10.098;2023-05-24T01:29:34;96917.88;;;13.48;61.82
48216;BME280;34005;48.844;10.098;2023-05-24T01:32:02;96915.03;;;13.43;61.82
48216;BME280;34005;48.844;10.098;2023-05-24T01:34:30;96918.63;;;13.42;61.93
48216;BME280;34005;48.844;10.098;2023-05-24T01:36:57;96917.38;;;13.38;62.08
48216;BME280;34005;48.844;10.098;2023-05-24T01:39:27;96911.91;;;13.33;62.68
48216;BME280;34005;48.844;10.098;2023-05-24T01:42:06;96918.19;;;13.32;62.46
48216;BME280;34005;48.844;10.098;2023-05-24T01:44:38;96914.53;;;13.33;63.78
48216;BME280;34005;48.844;10.098;2023-05-24T01:47:19;96909.31;;;13.33;62.92
48216;BME280;34005;48.844;10.098;2023-05-24T01:49:53;96912.94;;;13.32;62.73
48216;BME280;34005;48.844;10.098;2023-05-24T01:52:28;96911.66;;;13.28;62.62
48216;BME280;34005;48.844;10.098;2023-05-24T01:54:59;96912.03;;;13.25;62.38
48216;BME280;34005;48.844;10.098;2023-05-24T01:57:31;96917.66;;;13.22;62.69
48216;BME280;34005;48.844;10.098;2023-05-24T02:00:02;96921.66;;;13.17;63.00
48216;BME280;34005;48.844;10.098;2023-05-24T02:02:31;96917.03;;;13.19;62.55
48216;BME280;34005;48.844;10.098;2023-05-24T02:04:59;96916.03;;;13.20;62.15
48216;BME280;34005;48.844;10.098;2023-05-24T02:07:26;96919.03;;;13.17;62.03
48216;BME280;34005;48.844;10.098;2023-05-24T02:09:54;96918.19;;;13.10;61.92
48216;BME280;34005;48.844;10.098;2023-05-24T02:12:22;96913.31;;;13.07;61.60
48216;BME280;34005;48.844;10.098;2023-05-24T02:14:51;96920.13;;;13.02;61.76
48216;BME280;34005;48.844;10.098;2023-05-24T02:17:19;96919.88;;;12.96;61.80
48216;BME280;34005;48.844;10.098;2023-05-24T02:19:47;96916.22;;;12.91;62.38
48216;BME280;34005;48.844;10.098;2023-05-24T02:22:15;96921.22;;;12.86;62.39
48216;BME280;34005;48.844;10.098;2023-05-24T02:24:43;96923.38;;;12.82;62.32
48216;BME280;34005;48.844;10.098;2023-05-24T02:27:10;96925.56;;;12.78;62.45
48216;BME280;34005;48.844;10.098;2023-05-24T02:29:38;96926.56;;;12.77;62.19
48216;BME280;34005;48.844;10.098;2023-05-24T02:32:08;96933.78;;;12.75;61.82
48216;BME280;34005;48.844;10.098;2023-05-24T02:34:36;96928.31;;;12.70;62.21
48216;BME280;34005;48.844;10.098;2023-05-24T02:37:04;96929.69;;;12.66;62.00
48216;BME280;34005;48.844;10.098;2023-05-24T02:39:31;96929.88;;;12.65;61.88
48216;BME280;34005;48.844;10.098;2023-05-24T02:41:59;96940.50;;;12.63;61.91
48216;BME280;34005;48.844;10.098;2023-05-24T02:44:26;96930.03;;;12.63;62.71
48216;BME280;34005;48.844;10.098;2023-05-24T02:46:54;96935.09;;;12.65;61.90
48216;BME280;34005;48.844;10.098;2023-05-24T02:49:23;96927.00;;;12.60;61.78
48216;BME280;34005;48.844;10.098;2023-05-24T02:51:51;96935.66;;;12.60;62.05
48216;BME280;34005;48.844;10.098;2023-05-24T02:54:18;96930.59;;;12.58;62.17
48216;BME280;34005;48.844;10.098;2023-05-24T02:56:46;96933.41;;;12.57;61.99
48216;BME280;34005;48.844;10.098;2023-05-24T02:59:14;96925.38;;;12.58;61.42
48216;BME280;34005;48.844;10.098;2023-05-24T03:01:41;96928.94;;;12.51;61.65
48216;BME280;34005;48.844;10.098;2023-05-24T03:04:09;96930.72;;;12.50;62.52
48216;BME280;34005;48.844;10.098;2023-05-24T03:06:38;96931.63;;;12.57;62.35
48216;BME280;34005;48.844;10.098;2023-05-24T03:09:06;96930.44;;;12.60;61.76
48216;BME280;34005;48.844;10.098;2023-05-24T03:11:34;96930.78;;;12.57;61.37
48216;BME280;34005;48.844;10.098;2023-05-24T03:14:02;96935.94;;;12.50;61.30
48216;BME280;34005;48.844;10.098;2023-05-24T03:16:29;96934.91;;;12.45;61.37
48216;BME280;34005;48.844;10.098;2023-05-24T03:18:57;96933.00;;;12.39;61.59
48216;BME280;34005;48.844;10.098;2023-05-24T03:21:25;96938.81;;;12.34;61.55
48216;BME280;34005;48.844;10.098;2023-05-24T03:23:54;96936.13;;;12.27;61.59
48216;BME280;34005;48.844;10.098;2023-05-24T03:26:22;96935.22;;;12.20;61.81
48216;BME280;34005;48.844;10.098;2023-05-24T03:28:49;96938.19;;;12.17;61.96
48216;BME280;34005;48.844;10.098;2023-05-24T03:31:19;96935.16;;;12.13;62.05
48216;BME280;34005;48.844;10.098;2023-05-24T03:33:49;96936.31;;;12.11;62.14
48216;BME280;34005;48.844;10.098;2023-05-24T03:36:17;96940.91;;;12.09;62.21
48216;BME280;34005;48.844;10.098;2023-05-24T03:38:46;96933.06;;;12.09;62.06
48216;BME280;34005;48.844;10.098;2023-05-24T03:41:14;96933.69;;;12.11;62.40
48216;BME280;34005;48.844;10.098;2023-05-24T03:43:42;96936.94;;;12.13;62.20
48216;BME280;34005;48.844;10.098;2023-05-24T03:46:10;96937.94;;;12.12;62.11
48216;BME280;34005;48.844;10.098;2023-05-24T03:48:38;96937.78;;;12.13;62.88
48216;BME280;34005;48.844;10.098;2023-05-24T03:51:06;96932.34;;;12.15;62.33
48216;BME280;34005;48.844;10.098;2023-05-24T03:53:34;96936.13;;;12.12;62.17
48216;BME280;34005;48.844;10.098;2023-05-24T03:56:02;96935.88;;;12.07;62.22
48216;BME280;34005;48.844;10.098;2023-05-24T03:58:31;96928.59;;;12.03;62.44
48216;BME280;34005;48.844;10.098;2023-05-24T04:00:59;96934.16;;;12.00;62.46
48216;BME280;34005;48.844;10.098;2023-05-24T04:03:27;96933.19;;;12.01;63.33
48216;BME280;34005;48.844;10.098;2023-05-24T04:05:54;96936.59;;;12.01;62.80
48216;BME280;34005;48.844;10.098;2023-05-24T04:08:22;96934.97;;;12.00;62.85
48216;BME280;34005;48.844;10.098;2023-05-24T04:10:49;96929.75;;;12.00;62.95
48216;BME280;34005;48.844;10.098;2023-05-24T04:13:17;96930.56;;;12.01;62.78
48216;BME280;34005;48.844;10.098;2023-05-24T04:15:46;96934.63;;;12.03;64.07
48216;BME280;34005;48.844;10.098;2023-05-24T04:18:14;96931.84;;;12.05;63.31
48216;BME280;34005;48.844;10.098;2023-05-24T04:20:42;96924.97;;;12.04;63.49
48216;BME280;34005;48.844;10.098;2023-05-24T04:23:10;96925.22;;;12.09;64.85
48216;BME280;34005;48.844;10.098;2023-05-24T04:25:38;96923.88;;;12.13;63.74
48216;BME280;34005;48.844;10.098;2023-05-24T04:28:05;96932.34;;;12.15;63.34
48216;BME280;34005;48.844;10.098;2023-05-24T04:30:33;96929.09;;;12.13;62.70
48216;BME280;34005;48.844;10.098;2023-05-24T04:33:03;96929.47;;;12.10;62.84
48216;BME280;34005;48.844;10.098;2023-05-24T04:35:31;96928.22;;;12.06;63.01
48216;BME280;34005;48.844;10.098;2023-05-24T04:37:58;96933.81;;;12.03;63.47
48216;BME280;34005;48.844;10.098;2023-05-24T04:40:26;96931.56;;;12.00;63.14
48216;BME280;34005;48.844;10.098;2023-05-24T04:42:54;96929.66;;;11.93;63.43
48216;BME280;34005;48.844;10.098;2023-05-24T04:45:21;96932.28;;;11.93;63.29
48216;BME280;34005;48.844;10.098;2023-05-24T04:47:49;96934.25;;;11.91;63.29
48216;BME280;34005;48.844;10.098;2023-05-24T04:50:18;96933.63;;;11.89;63.50
48216;BME280;34005;48.844;10.098;2023-05-24T04:52:45;96937.25;;;11.88;63.51
48216;BME280;34005;48.844;10.098;2023-05-24T04:55:13;96937.25;;;11.88;63.50
48216;BME280;34005;48.844;10.098;2023-05-24T04:57:41;96940.66;;;11.89;63.45
48216;BME280;34005;48.844;10.098;2023-05-24T05:00:09;96944.72;;;11.91;63.37
48216;BME280;34005;48.844;10.098;2023-05-24T05:02:37;96942.94;;;11.92;63.40
48216;BME280;34005;48.844;10.098;2023-05-24T05:05:05;96942.09;;;11.91;63.82
48216;BME280;34005;48.844;10.098;2023-05-24T05:07:35;96944.53;;;11.93;63.15
48216;BME280;34005;48.844;10.098;2023-05-24T05:10:04;96945.72;;;11.90;63.24
48216;BME280;34005;48.844;10.098;2023-05-24T05:12:32;96946.34;;;11.92;63.38
48216;BME280;34005;48.844;10.098;2023-05-24T05:14:59;96955.81;;;11.93;63.19
48216;BME280;34005;48.844;10.098;2023-05-24T05:17:27;96963.00;;;11.91;63.15
48216;BME280;34005;48.844;10.098;2023-05-24T05:19:55;96958.31;;;11.87;63.32
48216;BME280;34005;48.844;10.098;2023-05-24T05:22:23;96958.84;;;11.82;63.38
48216;BME280;34005;48.844;10.098;2023-05-24T05:24:52;96959.22;;;11.79;63.52
48216;BME280;34005;48.844;10.098;2023-05-24T05:27:19;96955.97;;;11.77;63.49
48216;BME280;34005;48.844;10.098;2023-05-24T05:29:47;96958.94;;;11.74;63.60
48216;BME280;34005;48.844;10.098;2023-05-24T05:32:15;96957.16;;;11.74;63.94
48216;BME280;34005;48.844;10.098;2023-05-24T05:34:42;96954.00;;;11.79;63.72
48216;BME280;34005;48.844;10.098;2023-05-24T05:37:10;96954.63;;;11.81;63.45
48216;BME280;34005;48.844;10.098;2023-05-24T05:39:38;96942.19;;;11.83;63.62
48216;BME280;34005;48.844;10.098;2023-05-24T05:42:07;96946.25;;;11.86;63.48
48216;BME280;34005;48.844;10.098;2023-05-24T05:44:35;96948.16;;;11.92;65.67
48216;BME280;34005;48.844;10.098;2023-05-24T05:47:03;96944.00;;;11.98;64.63
48216;BME280;34005;48.844;10.098;2023-05-24T05:49:32;96937.78;;;11.99;63.69
48216;BME280;34005;48.844;10.098;2023-05-24T05:52:01;96935.97;;;11.99;64.11
48216;BME280;34005;48.844;10.098;2023-05-24T05:54:29;96926.97;;;12.02;63.61
48216;BME280;34005;48.844;10.098;2023-05-24T05:56:57;96942.72;;;12.08;62.97
48216;BME280;34005;48.844;10.098;2023-05-24T05:59:28;96932.44;;;12.07;62.19
48216;BME280;34005;48.844;10.098;2023-05-24T06:01:55;96937.25;;;12.03;62.23
48216;BME280;34005;48.844;10.098;2023-05-24T06:04:23;96936.53;;;11.94;62.05
48216;BME280;34005;48.844;10.098;2023-05-24T06:06:51;96942.47;;;11.88;62.20
48216;BME280;34005;48.844;10.098;2023-05-24T06:09:18;96951.00;;;11.82;62.65
48216;BME280;34005;48.844;10.098;2023-05-24T06:11:46;96939.47;;;11.77;62.42
48216;BME280;34005;48.844;10.098;2023-05-24T06:14:14;96944.09;;;11.74;62.48
48216;BME280;34005;48.844;10.098;2023-05-24T06:16:45;96943.25;;;11.74;62.54
48216;BME280;34005;48.844;10.098;2023-05-24T06:19:13;96939.81;;;11.73;62.57
48216;BME280;34005;48.844;10.098;2023-05-24T06:21:41;96950.75;;;11.77;62.49
48216;BME280;34005;48.844;10.098;2023-05-24T06:24:13;96946.94;;;11.80;61.97
48216;BME280;34005;48.844;10.098;2023-05-24T06:26:43;96957.56;;;11.78;62.09
48216;BME280;34005;48.844;10.098;2023-05-24T06:29:10;96948.13;;;11.77;62.09
48216;BME280;34005;48.844;10.098;2023-05-24T06:31:39;96945.16;;;11.80;62.29
48216;BME280;34005;48.844;10.098;2023-05-24T06:34:08;96951.63;;;11.84;61.90
48216;BME280;34005;48.844;10.098;2023-05-24T06:36:35;96946.41;;;11.84;61.51
48216;BME280;34005;48.844;10.098;2023-05-24T06:39:07;96954.06;;;11.86;61.91
48216;BME280;34005;48.844;10.098;2023-05-24T06:41:35;96956.19;;;11.90;61.82
48216;BME280;34005;48.844;10.098;2023-05-24T06:44:04;96958.00;;;11.90;61.66
48216;BME280;34005;48.844;10.098;2023-05-24T06:46:32;96965.28;;;11.94;61.69
48216;BME280;34005;48.844;10.098;2023-05-24T06:48:59;96964.91;;;11.98;61.33
48216;BME280;34005;48.844;10.098;2023-05-24T06:51:29;96967.19;;;12.01;61.20
48216;BME280;34005;48.844;10.098;2023-05-24T06:53:58;96966.16;;;12.02;60.89
48216;BME280;34005;48.844;10.098;2023-05-24T06:56:26;96967.81;;;12.03;61.09
48216;BME280;34005;48.844;10.098;2023-05-24T06:58:54;96974.38;;;11.99;61.06
48216;BME280;34005;48.844;10.098;2023-05-24T07:01:22;96977.63;;;12.01;61.08
48216;BME280;34005;48.844;10.098;2023-05-24T07:03:49;96969.78;;;12.01;61.03
48216;BME280;34005;48.844;10.098;2023-05-24T07:06:17;96973.66;;;12.05;60.60
48216;BME280;34005;48.844;10.098;2023-05-24T07:08:46;96988.97;;;12.08;60.80
48216;BME280;34005;48.844;10.098;2023-05-24T07:11:13;96998.72;;;12.14;60.71
48216;BME280;34005;48.844;10.098;2023-05-24T07:13:41;96998.97;;;12.19;60.54
48216;BME280;34005;48.844;10.098;2023-05-24T07:16:10;96992.78;;;12.20;60.40
48216;BME280;34005;48.844;10.098;2023-05-24T07:18:38;96993.03;;;12.25;60.45
48216;BME280;34005;48.844;10.098;2023-05-24T07:21:07;96990.88;;;12.29;59.81
48216;BME280;34005;48.844;10.098;2023-05-24T07:23:36;96993.66;;;12.27;59.58
48216;BME280;34005;48.844;10.098;2023-05-24T07:26:05;97000.88;;;12.25;60.36
48216;BME280;34005;48.844;10.098;2023-05-24T07:28:34;96992.03;;;12.26;60.18
48216;BME280;34005;48.844;10.098;2023-05-24T07:31:03;96995.72;;;12.32;61.14
48216;BME280;34005;48.844;10.098;2023-05-24T07:33:31;96995.41;;;12.42;60.47
48216;BME280;34005;48.844;10.098;2023-05-24T07:35:59;97005.16;;;12.48;60.13
48216;BME280;34005;48.844;10.098;2023-05-24T07:38:27;97011.28;;;12.55;59.05
48216;BME280;34005;48.844;10.098;2023-05-24T07:40:58;97010.91;;;12.58;58.00
48216;BME280;34005;48.844;10.098;2023-05-24T07:43:28;97013.38;;;12.60;57.65
48216;BME280;34005;48.844;10.098;2023-05-24T07:45:56;97013.78;;;12.63;57.71
48216;BME280;34005;48.844;10.098;2023-05-24T07:48:24;97016.06;;;12.66;57.81
48216;BME280;34005;48.844;10.098;2023-05-24T07:50:52;97013.06;;;12.69;57.63
48216;BME280;34005;48.844;10.098;2023-05-24T07:53:20;97018.53;;;12.74;57.92
48216;BME280;34005;48.844;10.098;2023-05-24T07:55:48;97025.66;;;12.81;57.84
48216;BME280;34005;48.844;10.098;2023-05-24T07:58:17;97021.69;;;12.85;58.01
48216;BME280;34005;48.844;10.098;2023-05-24T08:00:46;97024.94;;;12.87;57.55
48216;BME280;34005;48.844;10.098;2023-05-24T08:03:13;97020.50;;;12.87;57.34
48216;BME280;34005;48.844;10.098;2023-05-24T08:05:42;97028.63;;;12.92;57.58
48216;BME280;34005;48.844;10.098;2023-05-24T08:08:10;97020.13;;;12.90;57.46
48216;BME280;34005;48.844;10.098;2023-05-24T08:10:39;97024.19;;;12.93;57.24
48216;BME280;34005;48.844;10.098;2023-05-24T08:13:07;97021.75;;;12.91;57.09
48216;BME280;34005;48.844;10.098;2023-05-24T08:15:34;97018.56;;;12.96;57.25
48216;BME280;34005;48.844;10.098;2023-05-24T08:18:03;97023.44;;;12.99;57.33
48216;BME280;34005;48.844;10.098;2023-05-24T08:20:31;97025.69;;;13.02;56.70
48216;BME280;34005;48.844;10.098;2023-05-24T08:23:01;97024.44;;;12.98;56.84
48216;BME280;34005;48.844;10.098;2023-05-24T08:25:29;97034.72;;;12.99;56.74
48216;BME280;34005;48.844;10.098;2023-05-24T08:27:56;97036.16;;;13.02;56.48
48216;BME280;34005;48.844;10.098;2023-05-24T08:30:24;97035.19;;;13.03;57.48
48216;BME280;34005;48.844;10.098;2023-05-24T08:32:51;97034.97;;;13.05;56.54
48216;BME280;34005;48.844;10.098;2023-05-24T08:35:21;97036.78;;;13.04;56.26
48216;BME280;34005;48.844;10.098;2023-05-24T08:37:50;97040.78;;;13.00;55.92
48216;BME280;34005;48.844;10.098;2023-05-24T08:40:20;97041.41;;;13.02;56.22
48216;BME280;34005;48.844;10.098;2023-05-24T08:42:51;97036.41;;;13.07;56.36
48216;BME280;34005;48.844;10.098;2023-05-24T08:45:31;97037.66;;;13.11;55.60
48216;BME280;34005;48.844;10.098;2023-05-24T08:48:09;97043.34;;;13.15;55.45
48216;BME280;34005;48.844;10.098;2023-05-24T08:50:48;97045.78;;;13.16;55.31
48216;BME280;34005;48.844;10.098;2023-05-24T08:53:22;97047.16;;;13.12;55.08
48216;BME280;34005;48.844;10.098;2023-05-24T08:55:53;97044.53;;;13.12;55.25
48216;BME280;34005;48.844;10.098;2023-05-24T08:58:23;97042.88;;;13.11;55.23
48216;BME280;34005;48.844;10.098;2023-05-24T09:00:52;97032.41;;;13.11;55.53
48216;BME280;34005;48.844;10.098;2023-05-24T09:03:23;97032.06;;;13.14;55.63
48216;BME280;34005;48.844;10.098;2023-05-24T09:05:57;97032.84;;;13.15;55.28
48216;BME280;34005;48.844;10.098;2023-05-24T09:08:30;97038.34;;;13.20;55.38
48216;BME280;34005;48.844;10.098;2023-05-24T09:11:04;97041.41;;;13.24;55.31
48216;BME280;34005;48.844;10.098;2023-05-24T09:13:34;97041.41;;;13.24;55.09
48216;BME280;34005;48.844;10.098;2023-05-24T09:16:05;97044.03;;;13.24;55.38
48216;BME280;34005;48.844;10.098;2023-05-24T09:18:53;97057.13;;;13.24;55.17
48216;BME280;34005;48.844;10.098;2023-05-24T09:21:37;97054.78;;;13.29;55.00
48216;BME280;34005;48.844;10.098;2023-05-24T09:24:17;97054.78;;;13.29;55.23
48216;BME280;34005;48.844;10.098;2023-05-24T09:26:53;97060.19;;;13.27;54.43
48216;BME280;34005;48.844;10.098;2023-05-24T09:29:34;97057.75;;;13.26;54.85
48216;BME280;34005;48.844;10.098;2023-05-24T09:32:06;97053.50;;;13.25;55.34
48216;BME280;34005;48.844;10.098;2023-05-24T09:34:39;97057.75;;;13.26;55.18
48216;BME280;34005;48.844;10.098;2023-05-24T09:37:13;97051.88;;;13.24;55.01
48216;BME280;34005;48.844;10.098;2023-05-24T09:39:44;97052.69;;;13.24;55.06
48216;BME280;34005;48.844;10.098;2023-05-24T09:42:19;97045.84;;;13.23;54.92
48216;BME280;34005;48.844;10.098;2023-05-24T09:45:01;97057.47;;;13.20;54.67
48216;BME280;34005;48.844;10.098;2023-05-24T09:47:35;97060.66;;;13.16;54.44
48216;BME280;34005;48.844;10.098;2023-05-24T09:50:08;97058.59;;;13.11;54.39
48216;BME280;34005;48.844;10.098;2023-05-24T09:52:47;97055.56;;;13.08;54.90
48216;BME280;34005;48.844;10.098;2023-05-24T09:55:17;97056.53;;;13.07;54.97
48216;BME280;34005;48.844;10.098;2023-05-24T09:57:50;97051.69;;;13.04;54.86
48216;BME280;34005;48.844;10.098;2023-05-24T10:00:24;97055.34;;;13.09;56.09
48216;BME280;34005;48.844;10.098;2023-05-24T10:03:00;97067.28;;;13.12;54.86
48216;BME280;34005;48.844;10.098;2023-05-24T10:05:30;97063.66;;;13.13;55.29
48216;BME280;34005;48.844;10.098;2023-05-24T10:08:01;97066.75;;;13.16;55.04
48216;BME280;34005;48.844;10.098;2023-05-24T10:10:39;97068.78;;;13.21;55.47
48216;BME280;34005;48.844;10.098;2023-05-24T10:13:12;97069.59;;;13.22;54.69
48216;BME280;34005;48.844;10.098;2023-05-24T10:15:48;97063.09;;;13.17;54.80
48216;BME280;34005;48.844;10.098;2023-05-24T10:18:20;97064.34;;;13.22;55.05
48216;BME280;34005;48.844;10.098;2023-05-24T10:20:55;97070.84;;;13.26;54.90
48216;BME280;34005;48.844;10.098;2023-05-24T10:23:29;97068.84;;;13.28;54.27
48216;BME280;34005;48.844;10.098;2023-05-24T10:26:07;97062.81;;;13.27;54.06
48216;BME280;34005;48.844;10.098;2023-05-24T10:28:40;97060.19;;;13.27;53.93
48216;BME280;34005;48.844;10.098;2023-05-24T10:31:14;97059.22;;;13.28;54.10
48216;BME280;34005;48.844;10.098;2023-05-24T10:33:47;97056.59;;;13.28;53.95
48216;BME280;34005;48.844;10.098;2023-05-24T10:36:27;97054.50;;;13.24;54.19
48216;BME280;34005;48.844;10.098;2023-05-24T10:38:58;97042.94;;;13.18;54.25
48216;BME280;34005;48.844;10.098;2023-05-24T10:41:37;97037.28;;;13.14;54.76
48216;BME280;34005;48.844;10.098;2023-05-24T10:44:11;97040.53;;;13.16;55.24
48216;BME280;34005;48.844;10.098;2023-05-24T10:47:01;97041.75;;;13.20;54.82
48216;BME280;34005;48.844;10.098;2023-05-24T10:49:37;97042.16;;;13.17;54.32
48216;BME280;34005;48.844;10.098;2023-05-24T10:52:14;97039.28;;;13.12;54.24
48216;BME280;34005;48.844;10.098;2023-05-24T10:55:12;97038.66;;;13.10;54.40
48216;BME280;34005;48.844;10.098;2023-05-24T10:57:42;97042.53;;;13.14;55.79
48216;BME280;34005;48.844;10.098;2023-05-24T11:00:26;97046.81;;;13.22;55.01
48216;BME280;34005;48.844;10.098;2023-05-24T11:03:06;97040.59;;;13.23;53.29
48216;BME280;34005;48.844;10.098;2023-05-24T11:05:54;97038.16;;;13.22;54.14
48216;BME280;34005;48.844;10.098;2023-05-24T11:08:31;97036.53;;;13.20;53.88
48216;BME280;34005;48.844;10.098;2023-05-24T11:11:06;97043.34;;;13.15;54.38
48216;BME280;34005;48.844;10.098;2023-05-24T11:13:55;97037.28;;;13.14;54.25
48216;BME280;34005;48.844;10.098;2023-05-24T11:16:35;97035.66;;;13.13;54.22
48216;BME280;34005;48.844;10.098;2023-05-24T11:19:18;97043.34;;;13.15;54.11
48216;BME280;34005;48.844;10.098;2023-05-24T11:21:50;97042.53;;;13.14;54.13
48216;BME280;34005;48.844;10.098;2023-05-24T11:24:26;97039.47;;;13.11;54.05
48216;BME280;34005;48.844;10.098;2023-05-24T11:27:01;97037.59;;;13.05;54.22
48216;BME280;34005;48.844;10.098;2023-05-24T11:29:44;97029.50;;;12.99;54.12
48216;BME280;34005;48.844;10.098;2023-05-24T11:32:17;97022.56;;;12.92;53.98
48216;BME280;34005;48.844;10.098;2023-05-24T11:34:51;97026.53;;;12.88;54.43
48216;BME280;34005;48.844;10.098;2023-05-24T11:37:20;97026.19;;;12.91;54.71
48216;BME280;34005;48.844;10.098;2023-05-24T11:40:12;97030.84;;;12.95;53.74
48216;BME280;34005;48.844;10.098;2023-05-24T11:42:46;97030.59;;;12.90;53.03
48216;BME280;34005;48.844;10.098;2023-05-24T11:45:16;97031.59;;;12.89;53.57
48216;BME280;34005;48.844;10.098;2023-05-24T11:47:50;97032.78;;;12.87;53.57
48216;BME280;34005;48.844;10.098;2023-05-24T11:50:27;97040.63;;;12.87;54.90
48216;BME280;34005;48.844;10.098;2023-05-24T11:53:18;97046.88;;;12.86;53.29
48216;BME280;34005;48.844;10.098;2023-05-24T11:55:48;97036.59;;;12.84;53.60
48216;BME280;34005;48.844;10.098;2023-05-24T11:58:37;97039.03;;;12.86;53.02
48216;BME280;34005;48.844;10.098;2023-05-24T12:01:25;97040.63;;;12.87;52.33
48216;BME280;34005;48.844;10.098;2023-05-24T12:03:54;97037.84;;;12.88;52.76
48216;BME280;34005;48.844;10.098;2023-05-24T12:06:23;97042.88;;;12.90;52.68
48216;BME280;34005;48.844;10.098;2023-05-24T12:09:01;97038.47;;;12.90;52.68
48216;BME280;34005;48.844;10.098;2023-05-24T12:11:37;97044.69;;;12.89;52.21
48216;BME280;34005;48.844;10.098;2023-05-24T12:14:15;97042.88;;;12.90;52.34
48216;BME280;34005;48.844;10.098;2023-05-24T12:16:45;97032.59;;;12.88;52.86
48216;BME280;34005;48.844;10.098;2023-05-24T12:19:21;97041.50;;;12.94;52.28
48216;BME280;34005;48.844;10.098;2023-05-24T12:21:59;97041.78;;;12.99;52.01
48216;BME280;34005;48.844;10.098;2023-05-24T12:24:30;97038.94;;;13.01;52.15
48216;BME280;34005;48.844;10.098;2023-05-24T12:27:03;97041.63;;;13.07;51.44
48216;BME280;34005;48.844;10.098;2023-05-24T12:29:39;97039.06;;;13.14;51.33
48216;BME280;34005;48.844;10.098;2023-05-24T12:32:13;97043.00;;;13.25;52.22
48216;BME280;34005;48.844;10.098;2023-05-24T12:34:44;97036.31;;;13.37;51.57
48216;BME280;34005;48.844;10.098;2023-05-24T12:37:17;97036.41;;;13.50;51.39
48216;BME280;34005;48.844;10.098;2023-05-24T12:39:50;97030.03;;;13.59;50.85
48216;BME280;34005;48.844;10.098;2023-05-24T12:42:25;97032.13;;;13.71;50.62
48216;BME280;34005;48.844;10.098;2023-05-24T12:44:59;97023.56;;;13.84;50.51
48216;BME280;34005;48.844;10.098;2023-05-24T12:47:30;97023.00;;;13.95;49.48
48216;BME280;34005;48.844;10.098;2023-05-24T12:50:03;97017.03;;;14.08;49.30
48216;BME280;34005;48.844;10.098;2023-05-24T12:52:44;97019.19;;;14.26;49.68
48216;BME280;34005;48.844;10.098;2023-05-24T12:55:14;97009.13;;;14.42;48.52
48216;BME280;34005;48.844;10.098;2023-05-24T12:57:50;97003.97;;;14.56;47.93
48216;BME280;34005;48.844;10.098;2023-05-24T13:00:28;97004.63;;;14.71;47.67
48216;BME280;34005;48.844;10.098;2023-05-24T13:03:00;97004.47;;;14.86;47.02
48216;BME280;34005;48.844;10.098;2023-05-24T13:05:33;96998.00;;;14.95;46.30
48216;BME280;34005;48.844;10.098;2023-05-24T13:08:03;97003.69;;;15.06;45.49
48216;BME280;34005;48.844;10.098;2023-05-24T13:10:33;97000.25;;;15.12;45.35